createdAt,value
2017-12-16T00:03:12.534Z,92.07
2017-12-16T00:09:16.976Z,92.10
2017-12-16T00:15:20.809Z,91.90
2017-12-16T00:21:24.796Z,91.71
2017-12-16T00:27:28.777Z,92.13
2017-12-16T00:33:32.315Z,92.25
2017-12-16T00:39:35.956Z,91.70
2017-12-16T00:45:40.471Z,91.80
2017-12-16T00:51:44.815Z,91.74
2017-12-16T00:57:48.367Z,91.75
2017-12-16T01:03:52.614Z,91.51
2017-12-16T01:09:56.289Z,91.64
2017-12-16T01:16:00.089Z,91.29
2017-12-16T01:22:03.801Z,91.16
2017-12-16T01:28:07.718Z,91.12
2017-12-16T01:34:28.993Z,90.79
2017-12-16T01:40:32.499Z,91.07
2017-12-16T01:46:36.077Z,91.11
2017-12-16T01:52:39.705Z,91.25
2017-12-16T01:58:43.302Z,91.16
2017-12-16T02:04:46.820Z,90.99
2017-12-16T02:10:50.390Z,91.17
2017-12-16T02:16:54.264Z,91.30
2017-12-16T02:22:57.802Z,91.38
2017-12-16T02:29:01.449Z,91.23
2017-12-16T02:35:05.303Z,91.71
2017-12-16T02:41:08.993Z,91.85
2017-12-16T02:47:12.505Z,91.91
2017-12-16T02:53:16.326Z,91.65
2017-12-16T02:59:19.915Z,91.94
2017-12-16T03:05:24.422Z,92.24
2017-12-16T03:11:27.938Z,92.32
2017-12-16T03:17:32.214Z,92.31
2017-12-16T03:23:36.482Z,92.18
2017-12-16T03:29:40.085Z,92.12
2017-12-16T03:35:43.836Z,91.95
2017-12-16T03:41:47.490Z,91.76
2017-12-16T03:47:51.650Z,91.30
2017-12-16T03:53:55.432Z,91.42
2017-12-16T03:59:58.981Z,91.53
2017-12-16T04:06:02.634Z,91.96
2017-12-16T04:12:06.357Z,91.93
2017-12-16T04:18:10.655Z,92.08
2017-12-16T04:24:14.964Z,92.13
2017-12-16T04:30:18.558Z,92.31
2017-12-16T04:36:22.149Z,92.06
2017-12-16T04:42:25.736Z,91.58
2017-12-16T04:48:29.246Z,91.88
2017-12-16T04:54:32.843Z,91.28
2017-12-16T05:00:36.325Z,91.43
2017-12-16T05:06:40.036Z,91.68
2017-12-16T05:12:43.541Z,91.56
2017-12-16T05:18:47.138Z,91.52
2017-12-16T05:24:50.761Z,91.67
2017-12-16T05:30:54.718Z,93.07
2017-12-16T05:36:59.105Z,93.46
2017-12-16T05:43:03.408Z,93.17
2017-12-16T05:49:06.958Z,93.20
2017-12-16T05:55:10.452Z,93.21
2017-12-16T06:01:13.966Z,93.88
2017-12-16T06:07:17.550Z,93.89
2017-12-16T06:13:21.462Z,93.52
2017-12-16T06:19:25.437Z,93.53
2017-12-16T06:25:29.826Z,93.28
2017-12-16T06:31:33.347Z,93.18
2017-12-16T06:37:36.931Z,93.07
2017-12-16T06:43:41.345Z,92.80
2017-12-16T06:49:44.863Z,92.59
2017-12-16T06:55:48.418Z,91.98
2017-12-16T07:01:52.203Z,92.13
2017-12-16T07:07:55.822Z,92.53
2017-12-16T07:14:00.219Z,92.24
2017-12-16T07:20:03.746Z,92.21
2017-12-16T07:26:08.791Z,91.94
2017-12-16T07:32:12.299Z,92.20
2017-12-16T07:38:15.875Z,91.55
2017-12-16T07:44:19.402Z,91.20
2017-12-16T07:50:23.252Z,90.94
2017-12-16T07:56:26.887Z,90.87
2017-12-16T08:02:30.410Z,90.89
2017-12-16T08:08:33.925Z,90.94
2017-12-16T08:14:38.234Z,91.28
2017-12-16T08:20:41.771Z,91.42
2017-12-16T08:26:45.283Z,91.52
2017-12-16T08:32:48.816Z,91.67
2017-12-16T08:38:52.555Z,91.17
2017-12-16T08:44:56.239Z,90.94
2017-12-16T08:50:59.933Z,91.17
2017-12-16T08:57:04.217Z,91.03
2017-12-16T09:03:08.516Z,90.87
2017-12-16T09:09:12.061Z,90.60
2017-12-16T09:15:15.597Z,90.13
2017-12-16T09:21:20.752Z,90.18
2017-12-16T09:27:24.434Z,90.12
2017-12-16T09:33:27.974Z,90.15
2017-12-16T09:39:31.539Z,90.13
2017-12-16T09:45:35.115Z,89.64
2017-12-16T09:51:39.529Z,89.83
2017-12-16T09:57:43.055Z,89.49
2017-12-16T10:03:46.787Z,88.27
2017-12-16T10:09:50.315Z,87.56
2017-12-16T10:15:53.911Z,87.44
2017-12-16T10:21:57.785Z,87.90
2017-12-16T10:28:01.345Z,87.87
2017-12-16T10:34:04.974Z,87.53
2017-12-16T10:40:08.485Z,86.08
2017-12-16T10:46:11.995Z,85.81
2017-12-16T10:52:16.295Z,84.96
2017-12-16T10:58:19.951Z,84.95
2017-12-16T11:04:23.628Z,85.97
2017-12-16T11:10:27.234Z,86.84
2017-12-16T11:16:31.522Z,87.55
2017-12-16T11:22:35.102Z,87.73
2017-12-16T11:28:38.621Z,87.88
2017-12-16T11:34:42.956Z,87.71
2017-12-16T11:40:46.532Z,87.14
2017-12-16T11:46:51.107Z,86.95
2017-12-16T11:52:54.989Z,86.99
2017-12-16T11:58:59.452Z,87.15
2017-12-16T12:05:02.996Z,86.45
2017-12-16T12:11:06.618Z,85.97
2017-12-16T12:17:10.264Z,86.08
2017-12-16T12:23:13.809Z,85.93
2017-12-16T12:29:17.360Z,86.65
2017-12-16T12:35:21.283Z,86.94
2017-12-16T12:41:24.918Z,88.35
2017-12-16T12:47:28.439Z,89.32
2017-12-16T12:53:31.972Z,90.01
2017-12-16T12:59:35.623Z,90.21
2017-12-16T13:05:39.258Z,89.99
2017-12-16T13:11:43.592Z,89.84
2017-12-16T13:17:47.253Z,89.24
2017-12-16T13:23:51.110Z,88.62
2017-12-16T13:29:54.643Z,88.32
2017-12-16T13:35:58.919Z,87.86
2017-12-16T13:42:02.807Z,86.50
2017-12-16T13:48:06.327Z,85.47
2017-12-16T13:54:11.461Z,85.32
2017-12-16T14:00:15.142Z,84.62
2017-12-16T14:06:18.694Z,84.14
2017-12-16T14:12:23.103Z,83.98
2017-12-16T14:18:26.909Z,84.70
2017-12-16T14:24:30.794Z,85.90
2017-12-16T14:30:34.295Z,85.84
2017-12-16T14:36:38.695Z,86.03
2017-12-16T14:42:42.307Z,85.14
2017-12-16T14:48:46.111Z,85.97
2017-12-16T14:54:49.715Z,87.92
2017-12-16T15:00:53.329Z,89.49
2017-12-16T15:06:57.036Z,90.24
2017-12-16T15:13:00.561Z,89.77
2017-12-16T15:19:04.221Z,89.78
2017-12-16T15:25:07.911Z,90.30
2017-12-16T15:31:11.471Z,89.46
2017-12-16T15:37:15.111Z,88.78
2017-12-16T15:43:18.630Z,88.53
2017-12-16T15:49:22.637Z,88.71
2017-12-16T15:55:26.559Z,88.73
2017-12-16T16:01:30.086Z,88.38
2017-12-16T16:07:34.413Z,88.20
2017-12-16T16:13:37.955Z,88.71
2017-12-16T16:19:41.805Z,88.89
2017-12-16T16:25:45.409Z,87.89
2017-12-16T16:31:48.916Z,87.75
2017-12-16T16:37:53.556Z,88.10
2017-12-16T16:43:58.150Z,88.23
2017-12-16T16:50:02.424Z,88.86
2017-12-16T16:56:06.085Z,88.68
2017-12-16T17:02:09.595Z,88.37
2017-12-16T17:08:13.106Z,88.77
2017-12-16T17:14:16.728Z,89.26
2017-12-16T17:20:21.213Z,89.08
2017-12-16T17:26:25.016Z,88.39
2017-12-16T17:32:28.642Z,87.87
2017-12-16T17:38:32.104Z,87.71
2017-12-16T17:44:35.624Z,88.31
2017-12-16T17:50:39.906Z,88.65
2017-12-16T17:56:44.181Z,88.93
2017-12-16T18:02:48.535Z,89.05
2017-12-16T18:08:52.144Z,89.08
2017-12-16T18:14:55.834Z,89.12
2017-12-16T18:20:59.400Z,89.15
2017-12-16T18:27:02.914Z,88.81
2017-12-16T18:33:06.485Z,88.69
2017-12-16T18:39:10.126Z,88.75
2017-12-16T18:45:13.680Z,88.71
2017-12-16T18:51:17.361Z,88.39
2017-12-16T18:57:21.121Z,88.75
2017-12-16T19:03:25.155Z,88.25
2017-12-16T19:09:29.025Z,88.23
2017-12-16T19:15:32.547Z,87.89
2017-12-16T19:21:36.883Z,87.97
2017-12-16T19:27:40.426Z,88.12
2017-12-16T19:33:43.945Z,88.11
2017-12-16T19:39:47.474Z,88.49
2017-12-16T19:45:51.684Z,88.24
2017-12-16T19:51:55.425Z,88.03
2017-12-16T19:57:59.831Z,88.53
2017-12-16T20:04:03.367Z,88.69
2017-12-16T20:10:07.029Z,88.89
2017-12-16T20:16:10.550Z,88.95
2017-12-16T20:22:14.226Z,88.95
2017-12-16T20:28:18.519Z,88.81
2017-12-16T20:34:23.428Z,88.85
2017-12-16T20:40:27.494Z,88.94
2017-12-16T20:46:31.119Z,89.09
2017-12-16T20:52:34.621Z,89.04
2017-12-16T20:58:38.223Z,88.59
2017-12-16T21:04:42.507Z,88.10
2017-12-16T21:10:46.228Z,87.11
2017-12-16T21:16:49.822Z,86.29
2017-12-16T21:22:54.056Z,85.82
2017-12-16T21:28:57.646Z,86.57
2017-12-16T21:35:01.271Z,86.73
2017-12-16T21:41:04.775Z,86.57
2017-12-16T21:47:08.318Z,86.81
2017-12-16T21:53:12.640Z,86.72
2017-12-16T21:59:17.498Z,86.63
2017-12-16T22:05:21.189Z,86.33
2017-12-16T22:11:25.357Z,86.55
2017-12-16T22:17:28.872Z,86.70
2017-12-16T22:23:32.978Z,87.26
2017-12-16T22:29:37.412Z,87.30
2017-12-16T22:35:40.957Z,86.57
2017-12-16T22:41:44.478Z,86.06
2017-12-16T22:47:48.103Z,86.20
2017-12-16T22:53:51.619Z,86.44
2017-12-16T22:59:55.800Z,86.02
2017-12-16T23:05:59.316Z,85.79
2017-12-16T23:12:03.624Z,85.93
2017-12-16T23:18:07.117Z,86.11
2017-12-16T23:24:10.622Z,86.17
2017-12-16T23:30:14.229Z,86.28
2017-12-16T23:36:17.794Z,85.89
2017-12-16T23:42:22.377Z,85.93
2017-12-16T23:48:26.128Z,86.40
2017-12-16T23:54:29.762Z,86.82
